Time;durP1;ratioP1;P1;durP2;ratioP2;P2;SDS_P1;SDS_P2;PMS_P1;PMS_P2;Temp;Humidity;BMP_temperature;BMP_pressure;BME280_temperature;BME280_humidity;BME280_pressure;Samples;Min_cycle;Max_cycle;Signal;HPM_P1;HPM_P2
2021/10/02 00:44:49;;;;;;;18.60;11.10;;;12.30;99.90;;;;;;4973378;28;20085;-72
2021/10/02 00:47:18;;;;;;;16.48;11.30;;;12.30;99.90;;;;;;4973481;28;20043;-71
2021/10/02 00:49:45;;;;;;;18.05;11.25;;;12.30;99.90;;;;;;4972252;28;20037;-71
2021/10/02 00:52:17;;;;;;;18.05;11.68;;;12.20;99.90;;;;;;4973898;28;20050;-71
2021/10/02 00:54:45;;;;;;;15.25;11.00;;;12.20;99.90;;;;;;4972043;28;20046;-71
2021/10/02 00:57:11;;;;;;;16.33;10.93;;;12.20;99.90;;;;;;4973467;28;20026;-71
2021/10/02 00:59:37;;;;;;;16.80;11.05;;;12.10;99.90;;;;;;4973198;28;20031;-71
2021/10/02 01:02:21;;;;;;;14.30;10.85;;;12.10;99.90;;;;;;4972977;28;20156;-72
2021/10/02 01:05:13;;;;;;;14.02;10.82;;;12.00;99.90;;;;;;4972649;28;20027;-71
2021/10/02 01:07:53;;;;;;;17.25;11.00;;;12.00;99.90;;;;;;4973596;28;20050;-71
2021/10/02 01:10:47;;;;;;;14.27;10.98;;;11.90;99.90;;;;;;4972746;28;20053;-71
2021/10/02 01:13:35;;;;;;;18.05;11.50;;;11.90;99.90;;;;;;4973105;28;20030;-71
2021/10/02 01:16:21;;;;;;;15.65;11.48;;;12.00;99.90;;;;;;4971976;28;20034;-72
2021/10/02 01:19:05;;;;;;;15.20;10.18;;;12.00;99.90;;;;;;4987252;28;20118;-71
2021/10/02 01:22:25;;;;;;;19.27;10.02;;;11.90;99.90;;;;;;4972823;28;20633;-71
2021/10/02 01:25:24;;;;;;;18.98;10.40;;;12.00;99.90;;;;;;4994186;28;20089;-70
2021/10/02 01:28:08;;;;;;;17.25;10.68;;;11.90;99.90;;;;;;4953295;28;20019;-71
2021/10/02 01:36:42;;;;;;;13.07;10.15;;;12.00;99.90;;;;;;4951580;28;20090;-71
2021/10/02 01:47:48;;;;;;;15.27;10.93;;;12.00;99.90;;;;;;4952678;29;20126;-71
2021/10/02 01:50:15;;;;;;;18.83;11.73;;;12.00;99.90;;;;;;4952917;28;20019;-71
2021/10/02 01:52:44;;;;;;;18.30;11.27;;;12.00;99.90;;;;;;4954359;28;20042;-72
2021/10/02 01:55:11;;;;;;;17.42;11.98;;;12.10;99.90;;;;;;4971667;28;20031;-70
2021/10/02 01:57:41;;;;;;;22.75;12.52;;;12.00;99.90;;;;;;4972104;28;20068;-71
2021/10/02 02:00:09;;;;;;;14.80;11.25;;;12.00;99.90;;;;;;4972159;28;20031;-70
2021/10/02 02:02:38;;;;;;;18.55;11.95;;;11.90;99.90;;;;;;4971905;28;20497;-70
2021/10/02 02:05:07;;;;;;;13.75;11.15;;;11.80;99.90;;;;;;4971318;28;20042;-70
2021/10/02 02:07:36;;;;;;;15.05;10.93;;;11.80;99.90;;;;;;4971892;28;20069;-71
2021/10/02 02:10:05;;;;;;;15.88;11.63;;;11.80;99.90;;;;;;4971382;28;20038;-71
2021/10/02 02:12:33;;;;;;;16.98;11.32;;;11.70;99.90;;;;;;4970792;28;20533;-71
2021/10/02 02:15:03;;;;;;;13.13;10.40;;;11.70;99.90;;;;;;4971293;28;20145;-72
2021/10/02 02:17:30;;;;;;;15.80;11.18;;;11.60;99.90;;;;;;4970045;28;20027;-72
2021/10/02 02:19:57;;;;;;;16.85;11.07;;;11.70;99.90;;;;;;4971672;28;20436;-71
2021/10/02 02:22:23;;;;;;;15.75;10.93;;;11.80;99.90;;;;;;4970694;28;20514;-70
2021/10/02 02:24:50;;;;;;;13.90;9.88;;;11.70;99.90;;;;;;4971011;28;20101;-71
2021/10/02 02:27:16;;;;;;;13.05;10.00;;;11.70;99.90;;;;;;4971805;28;20114;-71
2021/10/02 02:29:41;;;;;;;13.70;9.50;;;11.70;99.90;;;;;;4971794;28;20162;-71
2021/10/02 02:32:07;;;;;;;13.52;9.45;;;11.70;99.90;;;;;;4971572;28;20078;-71
2021/10/02 02:34:33;;;;;;;15.30;10.10;;;11.70;99.90;;;;;;4971101;28;20114;-71
2021/10/02 02:36:59;;;;;;;12.98;9.77;;;11.70;99.90;;;;;;4971399;28;20034;-70
2021/10/02 02:39:26;;;;;;;15.90;9.73;;;11.80;99.90;;;;;;4971730;28;20031;-70
2021/10/02 02:41:52;;;;;;;14.25;10.10;;;11.80;99.90;;;;;;4971789;28;20441;-71
2021/10/02 02:44:18;;;;;;;12.95;9.98;;;11.90;99.90;;;;;;4971275;28;20448;-71
2021/10/02 02:46:54;;;;;;;12.40;10.32;;;11.90;99.90;;;;;;4971027;28;20058;-71
2021/10/02 02:49:28;;;;;;;17.33;11.60;;;12.00;99.90;;;;;;4970247;28;20085;-71
2021/10/02 02:52:39;;;;;;;15.55;10.80;;;11.90;99.90;;;;;;4971517;28;20533;-73
2021/10/02 02:55:10;;;;;;;14.88;9.85;;;11.90;99.90;;;;;;4990300;28;20084;-71
2021/10/02 02:57:43;;;;;;;13.63;10.23;;;11.80;99.90;;;;;;4981342;28;20054;-72
2021/10/02 03:00:20;;;;;;;13.95;10.75;;;11.80;99.90;;;;;;4975160;28;20034;-71
2021/10/02 03:03:03;;;;;;;16.02;10.50;;;11.80;99.90;;;;;;4975041;28;20023;-71
2021/10/02 03:05:30;;;;;;;15.05;10.95;;;11.80;99.90;;;;;;4974554;28;20612;-72
2021/10/02 03:08:02;;;;;;;15.23;10.85;;;11.80;99.90;;;;;;4975042;28;20011;-71
2021/10/02 03:10:29;;;;;;;14.10;10.85;;;11.80;99.90;;;;;;4975137;28;20030;-73
2021/10/02 03:13:03;;;;;;;13.82;9.93;;;11.80;99.90;;;;;;4975287;28;20045;-72
2021/10/02 03:15:29;;;;;;;17.13;11.18;;;11.70;99.90;;;;;;4974520;28;20388;-72
2021/10/02 03:17:57;;;;;;;16.65;10.63;;;11.70;99.90;;;;;;4974612;28;20041;-72
2021/10/02 03:20:25;;;;;;;14.88;11.35;;;11.60;99.90;;;;;;4973320;28;20048;-70
2021/10/02 03:22:53;;;;;;;15.90;11.82;;;11.60;99.90;;;;;;4975194;28;20385;-71
2021/10/02 03:25:28;;;;;;;15.13;10.63;;;11.60;99.90;;;;;;4973227;28;20123;-71
2021/10/02 03:27:55;;;;;;;16.33;10.93;;;11.60;99.90;;;;;;4975028;28;20019;-71
2021/10/02 03:30:21;;;;;;;15.45;10.35;;;11.60;99.90;;;;;;4974378;28;20516;-70
2021/10/02 03:32:48;;;;;;;16.55;11.45;;;11.60;99.90;;;;;;4974669;28;20038;-70
2021/10/02 03:35:16;;;;;;;15.85;10.85;;;11.60;99.90;;;;;;4973857;28;20030;-71
2021/10/02 03:37:42;;;;;;;14.48;10.38;;;11.60;99.90;;;;;;4974640;28;20085;-71
2021/10/02 03:40:10;;;;;;;20.67;11.20;;;11.70;99.90;;;;;;4974340;28;20437;-70
2021/10/02 03:42:46;;;;;;;14.20;10.75;;;11.80;99.90;;;;;;4974566;28;20061;-71
2021/10/02 03:45:12;;;;;;;12.23;9.93;;;11.80;99.90;;;;;;4973701;28;20042;-71
2021/10/02 03:47:38;;;;;;;13.35;10.15;;;11.90;99.90;;;;;;4974097;28;20405;-71
2021/10/02 03:50:05;;;;;;;14.40;10.45;;;11.80;99.90;;;;;;4974353;28;20031;-71
2021/10/02 03:52:31;;;;;;;14.85;10.68;;;11.90;99.90;;;;;;4974268;28;20441;-72
2021/10/02 03:54:57;;;;;;;16.77;11.10;;;11.90;99.90;;;;;;4973487;28;20035;-72
2021/10/02 03:57:22;;;;;;;12.75;10.48;;;11.80;99.90;;;;;;4973946;28;20019;-70
2021/10/02 03:59:48;;;;;;;15.88;11.10;;;11.70;99.90;;;;;;4973895;28;20117;-70
2021/10/02 04:02:14;;;;;;;14.60;10.95;;;11.70;99.90;;;;;;4974163;28;20029;-71
2021/10/02 04:04:39;;;;;;;14.90;10.32;;;11.70;99.90;;;;;;4972861;28;20033;-71
2021/10/02 04:07:05;;;;;;;15.80;10.90;;;11.60;99.90;;;;;;4974062;28;20092;-71
2021/10/02 04:09:31;;;;;;;16.70;11.07;;;11.60;99.90;;;;;;4973968;28;20422;-70
2021/10/02 04:11:57;;;;;;;16.42;11.45;;;11.60;99.90;;;;;;4973712;28;20042;-71
2021/10/02 04:14:22;;;;;;;16.05;10.80;;;11.60;99.90;;;;;;4973239;28;20062;-70
2021/10/02 04:16:48;;;;;;;15.30;11.65;;;11.60;99.90;;;;;;4973294;28;20051;-71
2021/10/02 04:19:14;;;;;;;16.05;11.48;;;11.60;99.90;;;;;;4972266;28;20474;-70
2021/10/02 04:21:40;;;;;;;17.15;11.77;;;11.60;99.90;;;;;;4973742;28;20031;-71
2021/10/02 04:24:05;;;;;;;17.48;12.02;;;11.70;99.90;;;;;;4973791;28;20037;-71
2021/10/02 04:26:31;;;;;;;20.80;11.30;;;11.70;99.90;;;;;;4972962;28;20058;-72
2021/10/02 04:28:57;;;;;;;16.58;12.27;;;11.70;99.90;;;;;;4973342;28;20392;-71
2021/10/02 04:31:23;;;;;;;21.02;11.20;;;11.70;99.90;;;;;;4973625;28;20014;-72
2021/10/02 04:33:48;;;;;;;14.57;10.50;;;11.60;99.90;;;;;;4973250;28;20026;-72
2021/10/02 04:36:14;;;;;;;17.50;11.85;;;11.70;99.90;;;;;;4971513;28;20023;-71
2021/10/02 04:38:42;;;;;;;14.40;10.77;;;11.70;99.90;;;;;;4971954;28;20483;-72
2021/10/02 04:41:09;;;;;;;13.90;10.00;;;11.60;99.90;;;;;;4973089;28;20596;-72
2021/10/02 04:43:39;;;;;;;14.45;10.20;;;11.60;99.90;;;;;;4972045;28;20073;-72
2021/10/02 04:46:05;;;;;;;15.68;11.10;;;11.70;99.90;;;;;;4972382;28;20142;-71
2021/10/02 04:48:30;;;;;;;14.25;10.38;;;11.70;99.90;;;;;;4972936;28;20106;-72
2021/10/02 04:50:56;;;;;;;13.43;10.73;;;11.70;99.90;;;;;;4973133;28;20019;-71
2021/10/02 04:53:22;;;;;;;15.40;10.35;;;11.60;99.90;;;;;;4973011;28;20027;-71
2021/10/02 04:55:48;;;;;;;15.15;9.23;;;11.60;99.90;;;;;;4972137;28;20527;-71
2021/10/02 04:58:14;;;;;;;15.70;9.48;;;11.40;99.90;;;;;;4972811;28;20381;-72
2021/10/02 05:00:39;;;;;;;14.77;9.48;;;11.40;99.90;;;;;;4972918;28;20026;-72
2021/10/02 05:03:05;;;;;;;13.70;9.88;;;11.40;99.90;;;;;;4972494;28;20038;-72
2021/10/02 05:05:31;;;;;;;15.50;10.63;;;11.30;99.90;;;;;;4965376;28;20047;-78
2021/10/02 05:07:56;;;;;;;16.95;11.75;;;11.40;99.90;;;;;;4971013;28;20049;-79
2021/10/02 05:10:22;;;;;;;15.18;11.10;;;11.40;99.90;;;;;;4972397;28;20536;-80
2021/10/02 05:12:47;;;;;;;17.27;11.85;;;11.50;99.90;;;;;;4985878;23;20519;-75
2021/10/02 05:15:13;;;;;;;16.55;11.07;;;11.50;99.90;;;;;;4965211;28;20126;-76
2021/10/02 05:17:39;;;;;;;20.58;12.52;;;11.40;99.90;;;;;;4972361;28;20086;-76
2021/10/02 05:20:05;;;;;;;19.08;11.77;;;11.50;99.90;;;;;;4973065;28;20093;-75
2021/10/02 05:22:31;;;;;;;17.08;11.48;;;11.50;99.90;;;;;;4963927;28;20027;-76
2021/10/02 05:24:56;;;;;;;17.55;11.82;;;11.40;99.90;;;;;;4988518;28;20075;-76
2021/10/02 05:27:22;;;;;;;17.92;11.82;;;11.50;99.90;;;;;;4987515;28;20098;-73
2021/10/02 05:29:48;;;;;;;18.15;12.52;;;11.40;99.90;;;;;;4977827;28;20041;-74
2021/10/02 05:32:15;;;;;;;15.85;11.77;;;11.50;99.90;;;;;;4975398;28;20018;-75
2021/10/02 05:34:41;;;;;;;18.45;11.88;;;11.50;99.90;;;;;;4976226;28;20106;-75
2021/10/02 05:37:07;;;;;;;15.15;11.88;;;11.40;99.90;;;;;;4974309;28;20027;-75
2021/10/02 05:39:33;;;;;;;15.77;11.07;;;11.40;99.90;;;;;;4972836;28;20081;-74
2021/10/02 05:41:58;;;;;;;16.33;10.80;;;11.50;99.90;;;;;;4973337;28;20023;-75
2021/10/02 05:44:24;;;;;;;13.02;10.57;;;11.40;99.90;;;;;;4973275;28;20441;-75
2021/10/02 05:46:50;;;;;;;16.17;10.07;;;11.50;99.90;;;;;;4972558;28;20030;-75
2021/10/02 05:49:15;;;;;;;13.13;9.98;;;11.50;99.90;;;;;;4970927;28;20050;-76
2021/10/02 05:51:41;;;;;;;11.70;9.32;;;11.60;99.90;;;;;;4972630;28;20114;-75
2021/10/02 05:54:09;;;;;;;13.68;9.05;;;11.70;99.90;;;;;;4972923;28;20034;-73
2021/10/02 05:56:35;;;;;;;11.57;8.73;;;11.70;99.90;;;;;;4971917;28;20038;-74
2021/10/02 05:59:01;;;;;;;11.45;8.95;;;11.70;99.90;;;;;;4972258;28;20069;-74
2021/10/02 06:01:27;;;;;;;10.15;8.32;;;11.70;99.90;;;;;;4985720;28;20027;-74
2021/10/02 06:03:52;;;;;;;9.85;7.97;;;11.80;99.90;;;;;;4991812;28;20022;-74
2021/10/02 06:06:18;;;;;;;9.90;7.63;;;11.80;99.90;;;;;;4991333;28;20029;-75
2021/10/02 06:08:44;;;;;;;8.38;7.40;;;11.80;99.90;;;;;;4976869;28;20019;-75
2021/10/02 06:11:09;;;;;;;8.38;7.35;;;11.70;99.90;;;;;;4964002;28;20101;-74
2021/10/02 06:13:35;;;;;;;11.20;7.88;;;11.70;99.90;;;;;;4961919;28;20094;-75
2021/10/02 06:16:01;;;;;;;11.02;7.85;;;11.80;99.90;;;;;;4961170;28;20408;-74
2021/10/02 06:18:27;;;;;;;10.35;7.65;;;11.90;99.90;;;;;;4961124;28;20028;-75
2021/10/02 06:20:54;;;;;;;13.38;8.30;;;12.00;99.90;;;;;;4963495;28;20571;-75
2021/10/02 06:23:21;;;;;;;10.25;8.13;;;12.20;99.90;;;;;;4963479;28;20052;-75
2021/10/02 06:25:48;;;;;;;10.98;8.52;;;12.20;99.90;;;;;;4961564;28;20092;-75
2021/10/02 06:28:13;;;;;;;12.32;8.57;;;12.30;99.90;;;;;;4964349;28;20029;-75
2021/10/02 06:30:39;;;;;;;11.95;8.90;;;12.40;99.90;;;;;;4965552;28;20538;-75
2021/10/02 06:33:05;;;;;;;10.30;8.48;;;12.60;99.90;;;;;;4967202;28;20027;-75
2021/10/02 06:35:30;;;;;;;12.23;8.05;;;12.50;99.90;;;;;;4965685;28;20035;-74
2021/10/02 06:37:57;;;;;;;12.40;8.32;;;12.50;99.90;;;;;;4965989;28;20030;-74
2021/10/02 06:40:25;;;;;;;11.57;7.93;;;12.50;99.90;;;;;;4966307;28;20027;-74
2021/10/02 06:42:51;;;;;;;9.38;7.22;;;12.50;99.90;;;;;;4965948;28;20019;-74
2021/10/02 06:45:16;;;;;;;8.30;7.38;;;12.50;99.90;;;;;;4962951;28;20031;-75
2021/10/02 06:47:42;;;;;;;7.85;6.72;;;12.50;99.90;;;;;;4966063;28;20059;-76
2021/10/02 06:50:08;;;;;;;10.23;7.55;;;12.40;99.90;;;;;;4965287;28;20034;-76
2021/10/02 06:52:34;;;;;;;12.63;8.65;;;12.50;99.90;;;;;;4965935;28;20035;-76
2021/10/02 06:55:00;;;;;;;12.85;8.25;;;12.70;99.90;;;;;;4966792;28;20028;-75
2021/10/02 06:57:26;;;;;;;9.48;7.63;;;12.70;99.90;;;;;;4967205;28;20042;-75
2021/10/02 06:59:52;;;;;;;10.80;7.53;;;12.80;99.90;;;;;;4965742;28;20027;-75
2021/10/02 07:02:17;;;;;;;8.63;6.72;;;12.80;99.90;;;;;;4966616;28;20390;-77
2021/10/02 07:04:45;;;;;;;9.43;7.38;;;12.80;99.90;;;;;;4967571;28;20027;-78
2021/10/02 07:07:11;;;;;;;10.25;7.47;;;12.80;99.90;;;;;;4981214;28;20015;-79
2021/10/02 07:09:36;;;;;;;9.27;6.70;;;12.90;99.90;;;;;;4968106;28;20224;-74
2021/10/02 07:12:03;;;;;;;8.85;6.72;;;12.90;99.90;;;;;;4964931;28;20059;-76
2021/10/02 07:14:29;;;;;;;13.52;6.80;;;12.90;99.90;;;;;;4964489;28;20377;-77
2021/10/02 07:16:54;;;;;;;7.07;5.78;;;13.00;99.90;;;;;;4965180;28;20030;-74
2021/10/02 07:19:20;;;;;;;10.25;6.93;;;13.00;99.90;;;;;;4966089;28;20074;-74
2021/10/02 07:21:46;;;;;;;8.07;5.88;;;13.20;99.90;;;;;;4965103;28;20028;-74
2021/10/02 07:24:15;;;;;;;11.02;6.10;;;13.30;99.90;;;;;;4966251;28;20033;-74
2021/10/02 07:26:43;;;;;;;7.88;5.93;;;13.40;99.90;;;;;;4965718;28;20019;-74
2021/10/02 07:29:10;;;;;;;10.07;6.75;;;13.50;99.90;;;;;;4965041;28;20028;-73
2021/10/02 07:31:36;;;;;;;9.63;6.95;;;13.50;99.90;;;;;;4965759;28;20057;-74
2021/10/02 07:34:03;;;;;;;9.40;7.13;;;13.60;99.90;;;;;;4965984;28;20030;-74
2021/10/02 07:36:29;;;;;;;14.52;7.70;;;13.60;99.90;;;;;;4965098;28;20035;-74
2021/10/02 07:38:55;;;;;;;14.35;7.93;;;13.50;99.90;;;;;;4963081;28;20094;-75
2021/10/02 07:41:22;;;;;;;9.88;8.38;;;13.50;99.90;;;;;;4963965;28;20654;-75
2021/10/02 07:43:55;;;;;;;9.93;7.13;;;13.60;99.90;;;;;;4965621;28;20078;-75
2021/10/02 07:46:22;;;;;;;11.98;7.07;;;13.50;99.90;;;;;;4965409;28;20022;-75
2021/10/02 07:48:51;;;;;;;12.95;8.00;;;13.50;99.90;;;;;;4965601;28;20062;-76
2021/10/02 07:51:18;;;;;;;10.23;7.30;;;13.80;99.90;;;;;;4965803;28;20023;-74
2021/10/02 07:53:45;;;;;;;11.65;7.53;;;13.90;99.90;;;;;;4964781;28;20030;-75
2021/10/02 07:56:11;;;;;;;11.80;6.90;;;13.90;99.90;;;;;;4964481;28;20030;-74
2021/10/02 07:58:38;;;;;;;9.20;6.95;;;14.20;99.90;;;;;;4965378;28;20502;-74
2021/10/02 08:01:06;;;;;;;10.15;7.20;;;14.40;99.90;;;;;;4964479;28;20030;-74
2021/10/02 08:03:32;;;;;;;6.50;5.60;;;14.30;99.90;;;;;;4963840;28;20047;-74
2021/10/02 08:06:02;;;;;;;11.10;6.18;;;14.40;99.90;;;;;;4963125;28;20493;-74
2021/10/02 08:08:30;;;;;;;9.55;6.03;;;14.70;99.90;;;;;;4962585;28;20371;-74
2021/10/02 08:10:56;;;;;;;8.00;5.50;;;15.30;99.90;;;;;;4964798;28;20034;-74
2021/10/02 08:13:22;;;;;;;5.70;5.15;;;15.60;99.90;;;;;;4963632;28;20035;-75
2021/10/02 08:15:59;;;;;;;6.63;5.60;;;15.90;99.90;;;;;;4963767;28;20027;-74
2021/10/02 08:18:29;;;;;;;6.63;5.13;;;16.20;99.90;;;;;;4964126;28;20114;-74
2021/10/02 08:20:57;;;;;;;6.53;5.38;;;16.80;99.90;;;;;;4963399;28;20450;-73
2021/10/02 08:23:24;;;;;;;5.85;5.30;;;17.10;99.90;;;;;;4963428;28;20030;-73
2021/10/02 08:25:51;;;;;;;7.47;5.30;;;17.60;99.90;;;;;;4963161;28;20023;-75
2021/10/02 08:28:18;;;;;;;11.35;4.50;;;18.40;99.90;;;;;;4960701;28;20164;-75
2021/10/02 08:30:46;;;;;;;5.65;4.68;;;19.00;99.90;;;;;;4964064;28;20109;-75
2021/10/02 08:33:12;;;;;;;5.68;4.28;;;19.10;99.90;;;;;;4962814;28;20031;-76
2021/10/02 08:35:40;;;;;;;6.65;4.40;;;19.20;99.90;;;;;;4963218;28;20482;-75
2021/10/02 08:38:06;;;;;;;6.70;3.70;;;19.20;99.90;;;;;;4963911;28;20038;-76
2021/10/02 08:40:33;;;;;;;6.75;3.88;;;19.20;99.90;;;;;;4963753;28;20027;-74
2021/10/02 08:42:59;;;;;;;4.45;3.10;;;19.60;99.90;;;;;;4964216;28;20066;-75
2021/10/02 08:45:28;;;;;;;5.32;3.22;;;20.00;99.90;;;;;;4961933;28;20024;-75
2021/10/02 08:47:56;;;;;;;7.00;3.42;;;21.30;99.90;;;;;;4962922;28;20023;-74
2021/10/02 08:50:22;;;;;;;3.88;3.50;;;21.80;99.90;;;;;;4963332;28;20023;-75
2021/10/02 08:52:48;;;;;;;6.03;3.22;;;22.50;99.90;;;;;;4963028;28;20039;-76
2021/10/02 08:55:14;;;;;;;4.10;3.70;;;23.30;99.90;;;;;;4962443;28;20039;-75
2021/10/02 08:57:42;;;;;;;3.85;2.90;;;23.60;99.90;;;;;;4962800;28;20038;-73
2021/10/02 09:00:12;;;;;;;2.85;2.65;;;23.50;99.70;;;;;;4963449;28;20105;-73
2021/10/02 09:02:38;;;;;;;5.13;2.83;;;23.70;99.70;;;;;;4963191;28;20031;-73
2021/10/02 09:05:06;;;;;;;2.53;2.33;;;23.80;98.40;;;;;;4961551;28;20081;-72
2021/10/02 09:07:33;;;;;;;2.67;2.40;;;24.20;97.80;;;;;;4963822;28;20648;-72
2021/10/02 09:10:02;;;;;;;5.45;2.63;;;23.60;98.40;;;;;;4963036;28;20066;-72
2021/10/02 09:12:28;;;;;;;13.50;2.95;;;24.50;97.30;;;;;;4963306;28;20039;-72
2021/10/02 09:14:55;;;;;;;5.32;2.97;;;24.20;97.00;;;;;;4963246;28;20089;-73
2021/10/02 09:17:22;;;;;;;3.20;2.70;;;23.50;98.00;;;;;;4968143;28;20030;-74
2021/10/02 09:19:48;;;;;;;2.35;2.15;;;24.40;98.00;;;;;;4970321;28;20031;-74
2021/10/02 09:22:21;;;;;;;3.20;2.53;;;25.30;95.20;;;;;;4966243;28;20746;-74
2021/10/02 09:24:48;;;;;;;5.40;2.90;;;25.40;93.50;;;;;;4972415;28;20023;-74
2021/10/02 09:27:24;;;;;;;3.03;2.42;;;24.90;93.50;;;;;;4975555;28;20037;-75
2021/10/02 09:29:57;;;;;;;3.97;2.53;;;24.40;94.50;;;;;;4971439;28;20031;-72
2021/10/02 09:32:42;;;;;;;3.35;2.45;;;25.40;94.80;;;;;;4973074;28;20027;-74
2021/10/02 09:35:11;;;;;;;2.65;2.45;;;26.00;91.60;;;;;;4963637;28;20026;-73
2021/10/02 09:37:39;;;;;;;3.53;2.33;;;25.00;91.80;;;;;;4962392;28;20113;-74
2021/10/02 09:40:18;;;;;;;2.75;2.47;;;24.90;94.00;;;;;;4961469;28;20150;-74
2021/10/02 09:42:50;;;;;;;3.25;2.80;;;25.00;93.90;;;;;;4962556;28;20027;-73
2021/10/02 09:45:19;;;;;;;5.22;2.72;;;25.00;92.40;;;;;;4957077;28;20034;-73
2021/10/02 09:47:49;;;;;;;4.72;2.47;;;26.00;93.20;;;;;;4962583;28;20077;-74
2021/10/02 09:50:23;;;;;;;2.45;2.25;;;26.70;91.30;;;;;;4964640;28;20090;-74
2021/10/02 09:52:54;;;;;;;3.40;2.63;;;26.20;91.10;;;;;;4962491;28;20035;-74
2021/10/02 09:55:28;;;;;;;3.20;2.60;;;26.80;90.50;;;;;;4961719;28;20026;-72
2021/10/02 09:58:15;;;;;;;3.30;2.85;;;27.20;88.90;;;;;;4960255;28;20578;-73
2021/10/02 10:00:48;;;;;;;2.70;2.50;;;25.60;90.50;;;;;;4962321;28;20038;-74
2021/10/02 10:03:17;;;;;;;3.00;2.30;;;26.30;90.80;;;;;;4961850;28;20022;-73
2021/10/02 10:05:46;;;;;;;5.75;2.58;;;26.40;91.30;;;;;;4961107;28;20058;-73
2021/10/02 10:08:13;;;;;;;4.03;2.60;;;27.30;89.20;;;;;;4959669;28;20034;-73
2021/10/02 10:10:41;;;;;;;3.25;2.40;;;27.00;89.20;;;;;;4961615;28;20034;-74
2021/10/02 10:13:21;;;;;;;2.70;2.47;;;27.60;88.20;;;;;;4962490;28;20039;-74
2021/10/02 10:15:48;;;;;;;2.83;2.55;;;28.20;84.80;;;;;;4961145;28;20049;-74
2021/10/02 10:18:27;;;;;;;2.80;2.40;;;26.70;85.80;;;;;;4962243;28;20118;-74
2021/10/02 10:20:55;;;;;;;4.90;2.45;;;24.90;91.80;;;;;;4961305;28;20030;-73
2021/10/02 10:23:35;;;;;;;6.53;2.20;;;25.50;91.60;;;;;;4961655;28;20915;-74
2021/10/02 10:26:14;;;;;;;3.25;2.50;;;25.70;88.80;;;;;;4960881;28;20027;-74
2021/10/02 10:28:42;;;;;;;2.63;2.40;;;25.80;90.00;;;;;;4961252;28;20102;-74
2021/10/02 10:31:14;;;;;;;3.83;2.47;;;27.50;90.30;;;;;;4959643;28;20023;-74
2021/10/02 10:33:41;;;;;;;4.57;2.42;;;28.20;83.80;;;;;;4961891;28;20437;-75
2021/10/02 10:36:08;;;;;;;2.95;2.63;;;28.40;82.90;;;;;;4960514;28;20023;-73
2021/10/02 10:38:37;;;;;;;3.10;2.70;;;28.40;85.30;;;;;;4961663;28;20024;-75
2021/10/02 10:41:04;;;;;;;5.75;3.05;;;28.90;80.30;;;;;;4961641;28;20031;-74
2021/10/02 10:43:31;;;;;;;4.60;2.53;;;27.40;85.10;;;;;;4960452;28;20015;-74
2021/10/02 10:46:05;;;;;;;2.45;2.25;;;27.80;83.30;;;;;;4960504;28;20070;-74
2021/10/02 10:48:30;;;;;;;3.50;2.65;;;27.50;83.60;;;;;;4961994;28;20094;-75
2021/10/02 10:51:02;;;;;;;4.70;2.67;;;28.80;80.20;;;;;;4961917;28;20832;-74
2021/10/02 10:53:45;;;;;;;2.95;2.70;;;27.30;82.80;;;;;;4961812;28;20110;-75
2021/10/02 10:56:14;;;;;;;4.00;3.13;;;26.80;86.10;;;;;;4960367;28;20037;-75
2021/10/02 10:58:40;;;;;;;5.35;3.67;;;26.10;84.20;;;;;;4961438;28;20500;-75
2021/10/02 11:01:09;;;;;;;3.17;2.80;;;25.40;88.50;;;;;;4962048;28;20059;-74
2021/10/02 11:03:38;;;;;;;4.25;2.58;;;27.10;85.30;;;;;;4961368;28;20107;-75
2021/10/02 11:06:17;;;;;;;4.45;3.00;;;27.70;81.80;;;;;;4961423;28;20027;-73
2021/10/02 11:08:49;;;;;;;3.70;3.00;;;28.30;81.70;;;;;;4962107;28;20033;-71
2021/10/02 11:11:15;;;;;;;3.38;3.05;;;27.10;82.70;;;;;;4961820;28;20508;-73
2021/10/02 11:13:47;;;;;;;3.35;2.72;;;28.20;80.60;;;;;;4961114;28;20043;-73
2021/10/02 11:16:29;;;;;;;2.60;2.40;;;27.50;79.50;;;;;;4963630;28;20043;-73
2021/10/02 11:18:54;;;;;;;2.97;2.78;;;27.70;81.40;;;;;;4964014;28;20140;-73
2021/10/02 11:21:20;;;;;;;4.55;2.63;;;29.30;79.80;;;;;;4965126;28;20171;-73
2021/10/02 11:24:04;;;;;;;3.97;2.65;;;28.70;76.00;;;;;;4963648;28;20504;-75
2021/10/02 11:26:44;;;;;;;2.90;2.42;;;28.90;77.00;;;;;;4962839;28;20554;-74
2021/10/02 11:29:19;;;;;;;3.10;2.80;;;29.00;75.20;;;;;;4965166;28;20019;-74
2021/10/02 11:31:47;;;;;;;3.05;2.72;;;29.90;75.30;;;;;;4965081;28;20035;-75
2021/10/02 11:34:22;;;;;;;5.22;2.30;;;29.50;73.50;;;;;;4964344;28;20393;-73
2021/10/02 11:36:54;;;;;;;5.40;3.08;;;29.10;73.80;;;;;;4964281;28;20027;-74
2021/10/02 11:39:26;;;;;;;3.03;2.33;;;29.10;76.20;;;;;;4965136;28;20031;-74
2021/10/02 11:42:07;;;;;;;4.40;2.78;;;29.30;72.70;;;;;;4966675;28;20024;-74
2021/10/02 11:44:32;;;;;;;3.07;2.30;;;29.70;73.40;;;;;;4970321;28;20031;-75
2021/10/02 11:47:23;;;;;;;3.00;2.70;;;30.40;74.20;;;;;;4965186;28;20337;-74
2021/10/02 11:50:06;;;;;;;3.40;2.70;;;31.60;70.80;;;;;;4963918;28;20038;-73
2021/10/02 11:52:34;;;;;;;2.65;2.45;;;32.60;66.80;;;;;;4964319;28;20035;-73
2021/10/02 11:55:34;;;;;;;2.38;2.17;;;32.10;67.30;;;;;;4963872;28;20486;-74
2021/10/02 11:58:09;;;;;;;3.78;2.05;;;32.00;63.90;;;;;;4963745;28;20027;-75
2021/10/02 12:00:46;;;;;;;2.40;2.20;;;31.20;63.80;;;;;;4965539;28;20031;-73
2021/10/02 12:03:13;;;;;;;3.10;2.10;;;31.20;63.00;;;;;;4963267;28;20401;-73
2021/10/02 12:05:47;;;;;;;3.60;2.45;;;30.40;63.80;;;;;;4963946;28;20088;-75
2021/10/02 12:08:13;;;;;;;2.50;2.30;;;28.90;66.60;;;;;;4964300;28;20097;-73
2021/10/02 12:11:03;;;;;;;4.15;2.30;;;29.00;67.80;;;;;;4963999;28;20030;-74
2021/10/02 12:13:41;;;;;;;3.47;2.17;;;29.10;66.40;;;;;;4963337;28;20058;-74
2021/10/02 12:16:11;;;;;;;2.92;2.28;;;27.90;66.90;;;;;;5004022;23;20050;-78
2021/10/02 12:18:44;;;;;;;3.03;2.15;;;26.90;70.30;;;;;;5002678;28;20061;-78
2021/10/02 12:21:23;;;;;;;2.40;2.20;;;27.40;73.50;;;;;;5004493;28;20669;-78
2021/10/02 12:23:59;;;;;;;2.92;2.53;;;28.50;67.90;;;;;;5003548;28;20037;-78
2021/10/02 12:26:26;;;;;;;4.13;2.38;;;30.00;68.10;;;;;;4992172;28;20109;-78
2021/10/02 12:29:00;;;;;;;3.40;2.30;;;31.10;64.10;;;;;;4992255;28;20202;-79
2021/10/02 12:31:59;;;;;;;2.75;2.30;;;32.80;62.30;;;;;;4993256;28;20105;-79
2021/10/02 12:34:32;;;;;;;4.43;2.10;;;32.30;64.00;;;;;;4992454;28;20023;-79
2021/10/02 12:37:12;;;;;;;3.42;1.95;;;31.90;61.10;;;;;;4993120;28;20023;-79
2021/10/02 12:39:39;;;;;;;4.28;2.45;;;29.70;65.00;;;;;;4991954;28;20026;-79
2021/10/02 12:42:08;;;;;;;3.10;2.58;;;27.70;69.50;;;;;;4992593;28;20998;-79
2021/10/02 12:44:39;;;;;;;3.85;2.30;;;27.80;71.80;;;;;;4992422;28;20046;-81
2021/10/02 12:47:06;;;;;;;;;;;28.00;70.80;;;;;;4991304;28;20479;-78
2021/10/02 12:49:46;;;;;;;2.92;2.63;;;28.00;69.60;;;;;;4992838;28;19992;-78
2021/10/02 12:52:14;;;;;;;2.90;2.60;;;27.60;71.40;;;;;;4993272;28;20023;-79
2021/10/02 12:54:41;;;;;;;5.97;3.00;;;28.40;72.10;;;;;;4992812;28;20030;-77
2021/10/02 12:57:10;;;;;;;2.60;2.40;;;28.50;69.70;;;;;;4991834;28;20026;-79
2021/10/02 12:59:38;;;;;;;3.03;2.75;;;30.10;67.00;;;;;;4991641;28;20034;-79
2021/10/02 13:02:04;;;;;;;6.00;2.80;;;29.80;70.30;;;;;;4992333;28;20057;-77
2021/10/02 13:04:33;;;;;;;3.05;2.67;;;31.50;65.30;;;;;;4992146;28;20376;-77
2021/10/02 13:06:59;;;;;;;2.53;2.33;;;31.60;61.50;;;;;;4991906;28;20109;-77
2021/10/02 13:09:24;;;;;;;5.20;2.88;;;29.50;66.00;;;;;;4992058;28;20037;-77
2021/10/02 13:11:50;;;;;;;3.65;2.30;;;28.30;66.10;;;;;;4992280;28;20030;-77
2021/10/02 13:14:36;;;;;;;2.03;1.92;;;29.50;66.90;;;;;;4990297;28;20038;-77
2021/10/02 13:17:09;;;;;;;2.40;2.20;;;29.50;64.60;;;;;;4990976;28;20042;-77
2021/10/02 13:19:35;;;;;;;2.55;2.00;;;29.50;64.90;;;;;;4991563;28;20108;-76
2021/10/02 13:22:14;;;;;;;2.38;2.10;;;29.50;63.80;;;;;;4991714;28;20180;-76
2021/10/02 13:25:11;;;;;;;2.38;2.17;;;29.50;65.10;;;;;;4989782;28;20054;-77
2021/10/02 13:27:40;;;;;;;2.30;2.10;;;31.10;60.70;;;;;;4990683;28;20073;-78
2021/10/02 13:30:13;;;;;;;2.17;2.00;;;29.00;64.40;;;;;;4990373;28;20489;-78
2021/10/02 13:32:40;;;;;;;2.17;2.05;;;29.50;62.90;;;;;;4990068;28;20034;-77
2021/10/02 13:35:10;;;;;;;2.40;2.20;;;29.10;61.90;;;;;;4991146;28;20037;-78
2021/10/02 13:37:44;;;;;;;3.33;2.55;;;28.10;64.30;;;;;;4991400;28;20030;-78
2021/10/02 13:40:19;;;;;;;2.75;2.47;;;28.10;65.30;;;;;;4991149;28;20687;-77
2021/10/02 13:42:49;;;;;;;2.47;2.25;;;29.30;65.30;;;;;;4984288;28;20018;-77
2021/10/02 13:45:16;;;;;;;2.45;2.25;;;30.20;64.20;;;;;;4989711;28;20014;-77
2021/10/02 13:47:54;;;;;;;2.47;2.28;;;30.00;63.20;;;;;;4990779;28;20034;-77
2021/10/02 13:50:20;;;;;;;2.50;2.30;;;30.60;63.40;;;;;;4990665;28;20025;-79